Time;durP1;ratioP1;P1;durP2;ratioP2;P2;SDS_P1;SDS_P2;PMS_P1;PMS_P2;Temp;Humidity;BMP_temperature;BMP_pressure;BME280_temperature;BME280_humidity;BME280_pressure;Samples;Min_cycle;Max_cycle;Signal;HPM_P1;HPM_P2
2023/10/01 00:00:57;;;;;;;28.50;18.70;;;;;;;10.45;68.48;101268.58;112387;1244;22014;-80
2023/10/01 00:03:46;;;;;;;27.40;18.80;;;;;;;10.41;68.69;101264.14;112624;1238;22345;-76
2023/10/01 00:06:24;;;;;;;25.10;17.70;;;;;;;10.40;68.80;101265.38;113005;1231;23003;-78
2023/10/01 00:08:57;;;;;;;36.80;19.70;;;;;;;10.41;68.92;101268.83;112950;1238;23716;-77
2023/10/01 00:11:42;;;;;;;27.30;18.50;;;;;;;10.40;68.95;101265.74;112252;1244;23053;-76
2023/10/01 00:14:14;;;;;;;26.00;18.80;;;;;;;10.40;69.06;101265.91;112297;1244;23057;-77
2023/10/01 00:17:00;;;;;;;25.20;17.80;;;;;;;10.38;69.07;101266.48;111547;1250;21954;-77
2023/10/01 00:19:35;;;;;;;27.00;18.50;;;;;;;10.36;69.31;101264.95;111837;1246;23229;-79
2023/10/01 00:22:02;;;;;;;24.60;16.80;;;;;;;10.34;69.23;101256.64;111867;1244;21958;-76
2023/10/01 00:24:36;;;;;;;27.00;18.20;;;;;;;10.31;69.41;101254.95;111912;1246;23603;-77
2023/10/01 00:27:11;;;;;;;26.30;17.50;;;;;;;10.31;69.24;101253.73;112108;1243;21973;-77
2023/10/01 00:29:49;;;;;;;26.60;17.30;;;;;;;10.29;69.46;101249.58;111723;1248;21981;-76
2023/10/01 00:32:31;;;;;;;25.20;18.20;;;;;;;10.28;69.45;101251.70;111808;1248;21995;-77
2023/10/01 00:35:04;;;;;;;;;;;;;;;10.26;69.48;101245.83;111785;1248;21973;-77
2023/10/01 00:37:41;;;;;;;24.90;17.40;;;;;;;10.16;69.88;101248.48;111632;1248;22003;-76
2023/10/01 00:40:13;;;;;;;24.50;16.60;;;;;;;10.16;69.86;101248.13;111740;1248;23747;-76
2023/10/01 00:42:46;;;;;;;27.10;18.00;;;;;;;10.17;69.86;101252.28;112333;1242;23048;-78
2023/10/01 00:45:28;;;;;;;23.50;16.90;;;;;;;10.16;69.90;101248.11;112267;1242;22946;-77
2023/10/01 00:48:13;;;;;;;31.40;17.10;;;;;;;10.16;69.85;101248.65;112469;1241;21942;-77
2023/10/01 00:50:57;;;;;;;27.50;16.40;;;;;;;10.13;69.90;101255.31;113269;1232;23652;-78
2023/10/01 00:53:34;;;;;;;23.80;16.60;;;;;;;10.12;69.98;101257.25;113353;1233;21933;-77
2023/10/01 00:56:03;;;;;;;29.30;16.30;;;;;;;10.13;70.01;101258.63;113369;1232;23306;-79
2023/10/01 00:58:34;;;;;;;23.30;15.60;;;;;;;10.13;70.09;101261.24;113261;1233;22964;-78
2023/10/01 01:01:08;;;;;;;27.00;16.10;;;;;;;10.11;70.18;101259.70;113408;1234;23569;-78
2023/10/01 01:03:40;;;;;;;25.70;16.90;;;;;;;10.10;70.23;101254.52;113141;1233;23595;-78
2023/10/01 01:06:23;;;;;;;26.00;15.50;;;;;;;10.09;70.22;101251.05;113439;1233;23635;-76
2023/10/01 01:08:54;;;;;;;26.00;17.00;;;;;;;10.08;70.28;101246.91;113278;1233;21956;-77
2023/10/01 01:11:26;;;;;;;24.70;15.90;;;;;;;10.09;70.46;101245.14;113421;1233;21937;-78
2023/10/01 01:13:57;;;;;;;27.60;15.50;;;;;;;10.11;70.56;101242.49;113427;1233;21950;-78
2023/10/01 01:16:26;;;;;;;22.40;14.80;;;;;;;10.15;70.83;101239.28;113443;1233;21957;-76
2023/10/01 01:19:10;;;;;;;22.70;14.70;;;;;;;10.18;70.80;101239.55;113345;1233;23597;-76
2023/10/01 01:21:43;;;;;;;26.60;15.10;;;;;;;10.20;70.85;101245.96;113446;1233;23580;-76
2023/10/01 01:24:14;;;;;;;23.60;14.40;;;;;;;10.20;70.86;101247.69;113088;1235;21959;-76
2023/10/01 01:26:51;;;;;;;21.70;13.50;;;;;;;10.20;70.74;101245.08;113020;1236;22006;-77
2023/10/01 01:29:40;;;;;;;22.20;12.80;;;;;;;10.19;70.77;101243.02;113130;1236;21944;-76
2023/10/01 01:32:15;;;;;;;21.50;13.70;;;;;;;10.16;70.68;101244.30;112569;1242;21939;-77
2023/10/01 01:34:45;;;;;;;22.20;13.50;;;;;;;10.15;70.58;101237.55;112540;1240;21973;-77
2023/10/01 01:40:13;;;;;;;18.30;13.10;;;;;;;10.09;70.73;101226.55;112358;1242;23633;-77
2023/10/01 01:42:44;;;;;;;27.00;14.40;;;;;;;10.08;70.79;101228.48;112661;1241;21958;-77
2023/10/01 01:45:25;;;;;;;19.80;12.90;;;;;;;10.06;70.77;101226.41;112440;1241;21970;-76
2023/10/01 01:47:54;;;;;;;21.70;13.60;;;;;;;10.04;70.81;101228.73;111815;1247;23721;-76
2023/10/01 01:50:31;;;;;;;19.50;13.70;;;;;;;10.04;70.85;101239.69;111796;1244;24368;-77
2023/10/01 01:53:04;;;;;;;19.60;14.00;;;;;;;10.03;71.08;101232.41;112148;1244;23213;-78
2023/10/01 01:55:34;;;;;;;23.40;13.20;;;;;;;10.04;71.13;101229.79;112474;1243;21964;-76
2023/10/01 01:58:08;;;;;;;23.50;13.40;;;;;;;10.05;71.26;101220.36;112547;1241;21973;-76
2023/10/01 02:00:46;;;;;;;24.00;14.60;;;;;;;10.01;71.38;101215.41;112357;1243;21959;-77
2023/10/01 02:03:22;;;;;;;22.40;12.60;;;;;;;10.03;71.46;101224.76;112895;1238;22158;-76
2023/10/01 02:05:54;;;;;;;24.60;14.30;;;;;;;10.13;71.58;101240.02;112929;1233;21950;-77
2023/10/01 02:08:49;;;;;;;27.50;12.60;;;;;;;10.14;71.60;101240.86;113475;1233;23569;-77
2023/10/01 02:11:23;;;;;;;24.80;13.00;;;;;;;10.16;71.64;101241.17;113470;1233;21950;-77
2023/10/01 02:13:57;;;;;;;21.60;12.60;;;;;;;10.19;71.71;101246.52;113399;1233;21935;-77
2023/10/01 02:22:00;;;;;;;18.60;12.60;;;;;;;10.30;71.91;101235.84;113471;1233;23556;-76
2023/10/01 02:24:45;;;;;;;17.70;12.70;;;;;;;10.35;71.72;101229.81;112933;1239;22696;-76
2023/10/01 02:27:41;;;;;;;21.20;11.90;;;;;;;10.34;71.77;101231.23;112810;1239;22606;-76
2023/10/01 02:30:15;;;;;;;19.40;12.80;;;;;;;10.35;71.83;101226.88;112769;1239;22264;-76
2023/10/01 02:35:41;;;;;;;15.80;11.50;;;;;;;10.39;71.68;101225.40;112959;1239;21943;-78
2023/10/01 02:41:15;;;;;;;20.70;13.50;;;;;;;10.37;71.60;101215.15;111940;1244;22003;-76
2023/10/01 02:43:45;;;;;;;19.10;12.60;;;;;;;10.36;71.35;101213.60;112670;1238;21947;-76
2023/10/01 02:46:31;;;;;;;20.70;13.10;;;;;;;10.36;71.41;101210.65;112790;1238;22459;-77
2023/10/01 02:49:12;;;;;;;20.50;13.10;;;;;;;10.39;71.50;101216.00;112725;1237;23702;-77
2023/10/01 02:51:41;;;;;;;20.00;12.50;;;;;;;10.39;71.53;101210.59;113086;1238;21939;-76
2023/10/01 02:54:11;;;;;;;19.90;13.40;;;;;;;10.40;71.58;101208.13;112956;1238;21982;-75
2023/10/01 02:56:52;;;;;;;16.50;12.20;;;;;;;10.41;71.47;101207.76;113135;1238;21950;-76
2023/10/01 02:59:32;;;;;;;21.50;12.70;;;;;;;10.41;71.39;101214.38;112853;1238;23040;-77
2023/10/01 03:02:24;;;;;;;18.40;11.90;;;;;;;10.40;71.40;101212.66;112984;1238;21942;-76
2023/10/01 03:05:08;;;;;;;18.70;13.60;;;;;;;10.37;71.50;101203.17;112244;1244;23766;-77
2023/10/01 03:07:45;;;;;;;22.90;13.20;;;;;;;10.32;71.51;101186.39;112154;1244;22995;-77
2023/10/01 03:10:32;;;;;;;21.10;14.30;;;;;;;10.33;71.59;101183.93;112164;1244;23011;-77
2023/10/01 03:13:14;;;;;;;23.80;12.90;;;;;;;10.40;71.81;101193.34;112158;1244;23034;-76
2023/10/01 03:15:44;;;;;;;18.80;12.50;;;;;;;10.41;71.78;101200.61;112137;1244;21947;-77
2023/10/01 03:28:33;;;;;;;;;;;;;;;10.39;71.46;101215.65;112237;1245;23023;-76
2023/10/01 03:31:08;;;;;;;17.80;12.10;;;;;;;10.28;71.73;101214.13;107823;1245;5606691;-76
2023/10/01 03:33:45;;;;;;;18.10;12.20;;;;;;;10.25;71.68;101219.05;111936;1245;22054;-77
2023/10/01 03:36:24;;;;;;;21.20;12.20;;;;;;;10.26;71.75;101216.09;111911;1245;22203;-77
2023/10/01 03:38:57;;;;;;;17.30;11.30;;;;;;;10.27;71.91;101209.62;112107;1245;23788;-76
2023/10/01 03:41:52;;;;;;;17.10;10.90;;;;;;;10.30;71.93;101216.19;112152;1234;21936;-77
2023/10/01 03:44:16;;;;;;;15.90;7.70;;;;;;;10.32;72.21;101219.09;113448;1233;21944;-77
2023/10/01 03:46:50;;;;;;;16.00;7.70;;;;;;;10.40;72.42;101210.05;113333;1233;21944;-76
2023/10/01 03:49:33;;;;;;;17.10;8.20;;;;;;;10.47;72.63;101205.36;113209;1233;22296;-76
2023/10/01 03:52:03;;;;;;;19.80;7.80;;;;;;;10.52;72.64;101200.71;113441;1233;23001;-78
2023/10/01 03:57:19;;;;;;;15.60;8.50;;;;;;;10.64;72.73;101208.42;113426;1233;21953;-78
2023/10/01 03:59:52;;;;;;;16.50;7.50;;;;;;;10.71;72.67;101215.58;113370;1233;21952;-78
2023/10/01 04:02:46;;;;;;;14.00;6.70;;;;;;;10.77;72.76;101216.46;113410;1233;23061;-77
2023/10/01 04:05:22;;;;;;;13.50;7.10;;;;;;;10.82;72.61;101217.05;113436;1233;21944;-78
2023/10/01 04:07:58;;;;;;;14.50;7.00;;;;;;;10.76;72.53;101202.55;113400;1233;21949;-77
2023/10/01 04:13:11;;;;;;;15.30;7.30;;;;;;;10.88;72.41;101204.35;113434;1233;22154;-78
2023/10/01 04:15:48;;;;;;;22.80;11.40;;;;;;;10.96;72.27;101214.77;113496;1233;21936;-80
2023/10/01 04:18:23;;;;;;;14.10;10.10;;;;;;;10.93;72.28;101205.10;113402;1233;21944;-78
2023/10/01 04:23:36;;;;;;;13.70;10.20;;;;;;;11.02;72.01;101210.96;112780;1237;22995;-77
2023/10/01 04:26:09;;;;;;;13.00;9.90;;;;;;;10.97;71.90;101206.06;113344;1230;21972;-77
2023/10/01 04:28:59;;;;;;;19.40;10.70;;;;;;;11.03;71.89;101220.51;113106;1235;21956;-77
2023/10/01 04:34:32;;;;;;;16.80;8.50;;;;;;;11.01;71.88;101215.51;112257;1243;23889;-76
2023/10/01 04:37:01;;;;;;;14.60;7.80;;;;;;;11.09;71.97;101222.11;112433;1243;22098;-75
2023/10/01 04:39:36;;;;;;;15.10;8.70;;;;;;;11.09;71.95;101217.75;112470;1239;21950;-77
2023/10/01 04:42:10;;;;;;;14.50;9.60;;;;;;;11.16;71.85;101222.61;112126;1243;21965;-77
2023/10/01 04:44:43;;;;;;;17.00;9.70;;;;;;;11.19;71.72;101217.50;112221;1244;24293;-76
2023/10/01 04:49:59;;;;;;;19.30;10.30;;;;;;;11.17;71.42;101217.73;112209;1244;23125;-77
2023/10/01 04:52:28;;;;;;;17.00;10.00;;;;;;;11.15;71.37;101212.38;112029;1244;21957;-77
2023/10/01 04:54:58;;;;;;;13.80;9.70;;;;;;;11.08;71.39;101205.59;112196;1244;21957;-76
2023/10/01 04:57:48;;;;;;;17.20;9.40;;;;;;;11.13;71.47;101216.60;112200;1241;24294;-76
2023/10/01 05:00:26;;;;;;;19.30;10.00;;;;;;;11.15;71.69;101215.66;112431;1240;21960;-76
2023/10/01 05:02:57;;;;;;;15.60;9.10;;;;;;;11.20;71.66;101218.17;112794;1240;23116;-77
2023/10/01 05:05:31;;;;;;;19.10;8.40;;;;;;;11.23;71.64;101214.06;112512;1239;21951;-77
2023/10/01 05:08:04;;;;;;;13.20;7.30;;;;;;;11.26;71.60;101214.00;112859;1233;21953;-77
2023/10/01 05:10:51;;;;;;;15.70;8.80;;;;;;;11.30;71.71;101217.19;113368;1233;21941;-77
2023/10/01 05:13:23;;;;;;;13.80;7.40;;;;;;;11.34;71.56;101214.47;113360;1233;21960;-75
2023/10/01 05:15:58;;;;;;;20.60;8.40;;;;;;;11.37;71.67;101210.92;113488;1233;22987;-76
2023/10/01 05:18:28;;;;;;;19.70;7.80;;;;;;;11.41;71.67;101210.80;113471;1233;23729;-77
2023/10/01 05:20:59;;;;;;;13.40;6.50;;;;;;;11.48;71.55;101210.95;113204;1233;21953;-78
2023/10/01 05:23:32;;;;;;;23.80;8.80;;;;;;;11.53;71.54;101211.89;113445;1233;21941;-78
2023/10/01 05:26:06;;;;;;;17.00;9.60;;;;;;;11.56;71.36;101217.35;113341;1233;22076;-76
2023/10/01 05:28:42;;;;;;;15.50;9.90;;;;;;;11.51;70.93;101220.80;113297;1233;21949;-79
2023/10/01 05:31:15;;;;;;;14.90;8.90;;;;;;;11.49;71.01;101223.81;113187;1232;21966;-77
2023/10/01 05:34:05;;;;;;;17.20;9.20;;;;;;;11.49;71.17;101234.44;113614;1232;21952;-75
2023/10/01 05:36:42;;;;;;;17.50;8.60;;;;;;;11.52;71.15;101238.39;113441;1233;23071;-76
2023/10/01 05:39:24;;;;;;;12.90;6.60;;;;;;;11.54;71.18;101245.11;113432;1233;21951;-77
2023/10/01 05:42:32;;;;;;;14.30;6.50;;;;;;;11.58;71.33;101241.88;113442;1233;22562;-76
2023/10/01 05:45:37;;;;;;;16.50;6.30;;;;;;;11.62;71.46;101232.52;113402;1233;22362;-76
2023/10/01 05:48:43;;;;;;;11.50;5.80;;;;;;;11.67;71.37;101228.90;113455;1233;21950;-75
2023/10/01 05:51:30;;;;;;;10.80;5.00;;;;;;;11.72;71.24;101233.81;113200;1234;21948;-77
2023/10/01 05:54:35;;;;;;;12.50;5.90;;;;;;;11.76;71.17;101239.98;113282;1233;22004;-74
2023/10/01 05:57:55;;;;;;;14.90;5.50;;;;;;;11.74;71.16;101230.46;112717;1240;23702;-74
2023/10/01 06:04:12;;;;;;;13.50;5.90;;;;;;;11.90;71.13;101225.14;112025;1245;23620;-75
2023/10/01 06:07:41;;;;;;;13.70;5.80;;;;;;;11.94;70.94;101224.16;111531;1248;23025;-75
2023/10/01 06:11:17;;;;;;;16.30;6.10;;;;;;;11.98;71.18;101222.45;111105;1254;23609;-75
2023/10/01 06:15:09;;;;;;;12.90;5.80;;;;;;;12.05;71.01;101225.73;111505;1250;21957;-77
2023/10/01 06:18:22;;;;;;;13.20;5.80;;;;;;;12.11;70.86;101238.47;110963;1256;24030;-76
2023/10/01 06:22:25;;;;;;;18.10;6.00;;;;;;;12.17;70.69;101246.66;111115;1251;21959;-77
2023/10/01 06:29:14;;;;;;;14.10;6.00;;;;;;;12.25;70.46;101241.34;111103;1251;21958;-76
2023/10/01 06:33:35;;;;;;;;;;;;;;;;;;;;;
2023/10/01 06:36:54;;;;;;;;;;;;;;;;;;;;;
2023/10/01 06:39:46;;;;;;;9.80;5.50;;;;;;;12.44;70.08;101247.92;111380;1251;23098;-76
2023/10/01 06:44:25;;;;;;;12.60;6.40;;;;;;;12.49;69.89;101243.77;111139;1251;21955;-76
2023/10/01 06:51:28;;;;;;;14.70;5.90;;;;;;;12.56;69.77;101219.80;110424;1262;22842;-76
2023/10/01 06:54:24;;;;;;;18.30;6.00;;;;;;;12.65;69.77;101225.60;110420;1262;21979;-77
2023/10/01 06:57:41;;;;;;;9.90;5.10;;;;;;;12.77;69.58;101226.09;110593;1261;23034;-76
2023/10/01 07:01:04;;;;;;;9.60;5.80;;;;;;;12.89;69.71;101229.55;110532;1262;22129;-76
2023/10/01 07:03:51;;;;;;;15.50;5.90;;;;;;;12.98;69.39;101227.49;110342;1262;22102;-76
2023/10/01 07:06:49;;;;;;;12.00;4.90;;;;;;;13.09;69.13;101224.50;110876;1257;21978;-76
2023/10/01 07:10:10;;;;;;;;;;;;;;;;;;;;;
2023/10/01 07:13:12;;;;;;;13.50;6.00;;;;;;;13.33;69.10;101238.38;109891;1266;23055;-75
2023/10/01 07:16:20;;;;;;;13.20;6.00;;;;;;;13.48;68.83;101236.27;109923;1266;22018;-77
2023/10/01 07:19:21;;;;;;;13.80;5.50;;;;;;;13.63;68.55;101235.21;110499;1260;23687;-76
2023/10/01 07:22:20;;;;;;;14.90;5.80;;;;;;;13.75;68.11;101239.48;110486;1255;21970;-75
2023/10/01 07:28:41;;;;;;;14.40;6.70;;;;;;;13.95;67.53;101239.98;112352;1239;23610;-77
2023/10/01 07:31:29;;;;;;;17.20;7.10;;;;;;;14.09;67.32;101239.98;111614;1247;22016;-75
2023/10/01 07:34:31;;;;;;;16.50;6.10;;;;;;;14.24;67.09;101248.48;111371;1250;23829;-79
2023/10/01 07:37:31;;;;;;;9.30;5.50;;;;;;;14.40;66.75;101247.17;111332;1250;22914;-75
2023/10/01 07:40:13;;;;;;;17.50;6.50;;;;;;;14.47;66.20;101235.19;111168;1252;23535;-76
2023/10/01 07:42:54;;;;;;;12.60;6.40;;;;;;;14.66;65.73;101247.73;110769;1257;21970;-76
2023/10/01 07:45:55;;;;;;;13.50;7.10;;;;;;;14.79;65.57;101249.14;111087;1254;24514;-76
2023/10/01 07:48:41;;;;;;;15.50;7.70;;;;;;;14.99;65.52;101253.60;110972;1254;24465;-76
2023/10/01 07:51:38;;;;;;;18.70;7.50;;;;;;;15.19;65.28;101251.35;111203;1251;22484;-76
2023/10/01 07:54:23;;;;;;;8.80;5.80;;;;;;;15.36;64.61;101254.81;111293;1250;21979;-76
2023/10/01 07:57:48;;;;;;;12.70;5.90;;;;;;;15.43;63.85;101258.71;111545;1247;23584;-76
2023/10/01 08:07:30;;;;;;;12.30;6.00;;;;;;;15.64;62.91;101254.98;111840;1246;22018;-76
2023/10/01 08:14:27;;;;;;;15.90;6.80;;;;;;;15.82;62.67;101256.52;111217;1256;21974;-77
2023/10/01 08:17:34;;;;;;;10.30;5.70;;;;;;;15.93;62.39;101250.06;111011;1255;22054;-80
2023/10/01 08:21:20;;;;;;;10.00;5.70;;;;;;;16.02;61.96;101247.19;110510;1262;22168;-78
2023/10/01 08:25:00;;;;;;;12.70;5.90;;;;;;;16.08;61.53;101244.27;110495;1262;23606;-79
2023/10/01 08:35:04;;;;;;;11.10;5.60;;;;;;;16.43;61.16;101251.73;110404;1265;21991;-78
2023/10/01 08:38:26;;;;;;;8.20;4.60;;;;;;;16.57;61.00;101240.16;110393;1264;22419;-77
2023/10/01 08:41:42;;;;;;;8.90;5.00;;;;;;;16.81;60.61;101237.23;109494;1267;21989;-75
2023/10/01 08:45:23;;;;;;;9.20;5.10;;;;;;;17.06;60.02;101246.94;110159;1252;23245;-76
2023/10/01 08:48:47;;;;;;;13.00;6.40;;;;;;;17.33;59.74;101249.42;111197;1255;21995;-76
2023/10/01 08:55:42;;;;;;;10.50;5.40;;;;;;;17.89;58.11;101244.17;110954;1254;23799;-74
2023/10/01 08:59:25;;;;;;;14.70;4.90;;;;;;;18.13;57.44;101243.77;112108;1238;22039;-76
2023/10/01 09:03:10;;;;;;;12.50;4.50;;;;;;;18.30;56.44;101247.21;112817;1238;22065;-76
2023/10/01 09:07:27;;;;;;;9.60;4.60;;;;;;;18.44;55.96;101245.93;112978;1233;22867;-74
2023/10/01 09:10:38;;;;;;;10.30;4.70;;;;;;;18.48;55.40;101241.80;112962;1239;22106;-75
2023/10/01 09:14:41;;;;;;;;;;;;;;;;;;;;;
2023/10/01 09:17:40;;;;;;;13.30;4.30;;;;;;;18.56;54.43;101237.80;112703;1239;22561;-78
2023/10/01 09:24:42;;;;;;;9.40;4.00;;;;;;;18.67;53.98;101243.04;111941;1247;23696;-75
2023/10/01 09:28:29;;;;;;;8.30;3.60;;;;;;;18.68;53.51;101245.23;111896;1247;21953;-75
2023/10/01 09:31:52;;;;;;;8.70;3.60;;;;;;;18.72;53.44;101243.23;111720;1247;21980;-76
2023/10/01 09:35:02;;;;;;;7.20;3.70;;;;;;;18.79;53.38;101244.96;111707;1247;22384;-76
2023/10/01 09:38:57;;;;;;;13.80;5.60;;;;;;;18.90;53.25;101246.45;111671;1247;23620;-75
2023/10/01 09:43:15;;;;;;;;;;;;;;;;;;;;;
2023/10/01 09:46:39;;;;;;;;;;;;;;;;;;;;;
2023/10/01 09:50:13;;;;;;;12.30;6.80;;;;;;;18.99;52.79;101240.84;111128;1254;23622;-75
2023/10/01 09:53:34;;;;;;;10.70;4.80;;;;;;;19.06;52.72;101244.11;111185;1254;23054;-76
2023/10/01 09:57:42;;;;;;;13.60;4.40;;;;;;;19.07;52.17;101248.31;111103;1253;21986;-76
2023/10/01 10:00:59;;;;;;;14.90;6.00;;;;;;;19.08;52.14;101251.23;111600;1247;22445;-75
2023/10/01 10:04:39;;;;;;;13.90;6.70;;;;;;;19.11;52.07;101245.40;111727;1247;21978;-77
2023/10/01 10:07:59;;;;;;;11.20;4.80;;;;;;;19.11;51.76;101250.00;111228;1252;22636;-76
2023/10/01 10:11:39;;;;;;;11.20;4.10;;;;;;;19.04;51.34;101247.08;111241;1249;21969;-76
2023/10/01 10:14:56;;;;;;;11.30;4.30;;;;;;;18.95;51.42;101245.65;111222;1251;21961;-75
2023/10/01 10:18:28;;;;;;;;;;;;;;;;;;;;;
2023/10/01 10:22:25;;;;;;;9.80;4.60;;;;;;;18.94;51.79;101246.09;110398;1264;22031;-75
2023/10/01 10:26:31;;;;;;;9.90;4.60;;;;;;;18.97;51.70;101245.02;110805;1257;22011;-75
2023/10/01 10:30:07;;;;;;;7.90;3.80;;;;;;;18.99;51.43;101238.70;110697;1258;22942;-76
2023/10/01 10:33:54;;;;;;;6.90;3.10;;;;;;;19.06;51.53;101236.75;110067;1266;23063;-76
2023/10/01 10:36:58;;;;;;;9.60;4.10;;;;;;;19.16;51.44;101230.69;109298;1271;21992;-74
2023/10/01 10:40:12;;;;;;;7.50;5.10;;;;;;;19.22;51.05;101226.61;109012;1275;22016;-76
2023/10/01 10:43:36;;;;;;;5.90;2.90;;;;;;;19.44;51.41;101224.91;109001;1273;22870;-77
2023/10/01 10:47:12;;;;;;;7.00;2.80;;;;;;;19.67;50.33;101228.98;109184;1268;21989;-76
2023/10/01 10:51:27;;;;;;;;;;;;;;;;;;;;;
2023/10/01 10:54:48;;;;;;;7.20;3.30;;;;;;;19.74;48.92;101222.92;110223;1265;21992;-76
2023/10/01 10:58:12;;;;;;;6.50;2.80;;;;;;;19.77;48.60;101224.66;110185;1265;24102;-76
2023/10/01 11:01:19;;;;;;;11.60;3.60;;;;;;;19.82;48.53;101229.34;110550;1262;21988;-74
2023/10/01 11:04:19;;;;;;;6.20;3.50;;;;;;;19.81;48.22;101225.69;109914;1267;21980;-75
2023/10/01 11:07:04;;;;;;;8.00;3.10;;;;;;;19.85;48.49;101218.67;109907;1266;22519;-76
2023/10/01 11:10:03;;;;;;;8.80;3.30;;;;;;;19.93;48.55;101215.89;110245;1260;22760;-75
2023/10/01 11:13:13;;;;;;;11.30;3.50;;;;;;;19.94;48.10;101214.95;110746;1252;21966;-75
2023/10/01 11:16:48;;;;;;;10.70;2.80;;;;;;;19.94;47.74;101219.34;111231;1252;22071;-76
2023/10/01 11:19:35;;;;;;;7.20;3.10;;;;;;;19.98;47.67;101215.90;110898;1258;24086;-78
2023/10/01 11:22:12;;;;;;;9.70;3.40;;;;;;;20.03;47.59;101211.02;110947;1251;22545;-76
2023/10/01 11:24:49;;;;;;;12.50;4.50;;;;;;;20.07;47.22;101202.98;111154;1252;21959;-75
2023/10/01 11:30:57;;;;;;;8.20;3.20;;;;;;;20.10;46.82;101203.34;111023;1254;21966;-75
2023/10/01 11:34:21;;;;;;;6.90;2.60;;;;;;;20.11;46.75;101204.02;111008;1254;21968;-74
2023/10/01 11:37:12;;;;;;;;;;;;;;;;;;;;;
2023/10/01 11:40:08;;;;;;;6.50;3.10;;;;;;;20.04;46.11;101203.36;111280;1250;22038;-75
2023/10/01 11:43:58;;;;;;;;;;;;;;;;;;;;;
2023/10/01 11:47:10;;;;;;;5.50;2.60;;;;;;;20.06;46.04;101190.17;111432;1250;22382;-75
2023/10/01 11:50:40;;;;;;;7.00;3.50;;;;;;;20.13;46.49;101184.98;111572;1250;21961;-75
2023/10/01 11:54:46;;;;;;;8.30;3.00;;;;;;;20.24;45.96;101183.15;111557;1249;22715;-75
2023/10/01 11:58:16;;;;;;;9.50;3.40;;;;;;;20.20;45.48;101170.36;111573;1250;22785;-75
2023/10/01 12:01:38;;;;;;;8.80;3.20;;;;;;;20.15;45.26;101163.08;111566;1250;22021;-77
2023/10/01 12:05:48;;;;;;;;;;;;;;;;;;;;;
2023/10/01 12:09:40;;;;;;;6.50;3.00;;;;;;;20.03;45.37;101155.37;111568;1251;23694;-76
2023/10/01 12:12:42;;;;;;;7.00;3.60;;;;;;;19.97;45.36;101150.48;111241;1255;24404;-74
2023/10/01 12:15:43;;;;;;;7.50;3.40;;;;;;;19.98;45.69;101147.73;110859;1254;23030;-75
2023/10/01 12:19:36;;;;;;;6.00;2.70;;;;;;;19.95;45.72;101139.11;110307;1263;23088;-75
2023/10/01 12:23:26;;;;;;;;;;;;;;;;;;;;;
2023/10/01 12:29:42;;;;;;;7.20;3.00;;;;;;;19.93;45.37;101146.10;110073;1264;21965;-78
2023/10/01 12:33:00;;;;;;;6.70;2.90;;;;;;;19.85;45.36;101153.02;110454;1261;22144;-74
2023/10/01 12:35:47;;;;;;;8.50;3.30;;;;;;;19.79;45.40;101154.09;110200;1261;22496;-75
2023/10/01 12:46:51;;;;;;;9.90;3.30;;;;;;;19.53;45.65;101157.83;111470;1248;23623;-76
2023/10/01 12:50:09;;;;;;;6.60;2.90;;;;;;;19.50;45.67;101153.92;111598;1249;23670;-77
2023/10/01 12:54:06;;;;;;;7.70;4.30;;;;;;;19.48;45.66;101148.94;111066;1253;23025;-76
2023/10/01 12:57:48;;;;;;;;;;;;;;;;;;;;;
2023/10/01 13:01:35;;;;;;;8.20;3.40;;;;;;;19.49;45.61;101148.36;110526;1262;23737;-75
2023/10/01 13:04:48;;;;;;;11.30;3.40;;;;;;;19.50;45.78;101147.38;110452;1262;22056;-75
2023/10/01 13:08:13;;;;;;;;;;;;;;;;;;;;;
2023/10/01 13:11:59;;;;;;;9.00;4.50;;;;;;;19.49;45.36;101142.36;110776;1258;22112;-76
2023/10/01 13:35:30;;;;;;;;;;;;;;;;;;;;;
2023/10/01 14:10:56;;;;;;;9.30;3.30;;;;;;;20.10;42.71;101097.34;108509;1280;23689;-74
2023/10/01 14:14:09;;;;;;;6.90;3.30;;;;;;;20.06;42.80;101103.09;109056;1272;23113;-75
2023/10/01 14:17:12;;;;;;;9.00;3.50;;;;;;;19.99;43.02;101107.91;108976;1273;21990;-74
2023/10/01 14:20:36;;;;;;;6.90;3.00;;;;;;;19.98;43.14;101105.21;109137;1273;21972;-76
2023/10/01 14:51:55;;;;;;;7.60;4.20;;;;;;;20.81;40.83;101089.02;105204;1246;8817507;-75
2023/10/01 14:55:04;;;;;;;;;;;;;;;20.43;41.67;101086.14;111508;1251;23973;-77
2023/10/01 14:58:15;;;;;;;5.80;3.40;;;;;;;20.10;42.34;101084.79;111453;1251;23128;-75
2023/10/01 15:01:08;;;;;;;7.80;3.00;;;;;;;19.99;42.92;101089.02;111126;1251;22206;-76
2023/10/01 15:04:41;;;;;;;;;;;;;;;;;;;;;
2023/10/01 15:08:17;;;;;;;8.00;3.80;;;;;;;19.77;43.65;101089.58;110899;1256;24351;-76
2023/10/01 15:12:47;;;;;;;;;;;;;;;;;;;;;
2023/10/01 15:15:51;;;;;;;10.40;3.90;;;;;;;19.57;44.26;101070.36;110399;1263;23070;-78
2023/10/01 15:19:01;;;;;;;9.70;3.80;;;;;;;19.58;44.50;101077.50;110212;1264;22614;-75
2023/10/01 15:22:43;;;;;;;;;;;;;;;;;;;;;
2023/10/01 15:26:42;;;;;;;11.00;3.50;;;;;;;19.39;44.62;101079.29;110713;1260;21974;-78
2023/10/01 15:30:52;;;;;;;8.60;3.70;;;;;;;19.19;44.98;101074.86;110782;1249;23072;-77
2023/10/01 15:34:49;;;;;;;9.00;4.40;;;;;;;19.07;45.11;101066.27;111349;1251;22735;-77
2023/10/01 15:39:36;;;;;;;7.90;4.00;;;;;;;19.05;45.41;101082.25;110314;1264;22003;-78
2023/10/01 15:43:17;;;;;;;;;;;;;;;;;;;;;
2023/10/01 15:46:40;;;;;;;12.10;7.10;;;;;;;18.96;45.61;101091.27;109908;1266;21984;-79
2023/10/01 15:50:37;;;;;;;9.90;7.40;;;;;;;18.96;45.74;101087.40;110058;1260;23115;-77
2023/10/01 15:54:30;;;;;;;7.80;4.00;;;;;;;19.04;45.65;101079.84;107377;1296;545895;-77
2023/10/01 16:02:18;;;;;;;11.30;4.60;;;;;;;18.82;45.96;101084.91;109173;1275;22001;-79
2023/10/01 16:06:18;;;;;;;7.80;4.50;;;;;;;18.77;46.26;101084.50;108837;1279;21986;-78
2023/10/01 16:10:11;;;;;;;8.40;3.70;;;;;;;18.68;46.22;101080.75;104770;1277;24494;-75
2023/10/01 16:13:57;;;;;;;9.20;4.30;;;;;;;18.64;46.43;101091.21;109643;1270;22073;-75
2023/10/01 16:17:24;;;;;;;8.70;4.30;;;;;;;18.61;46.57;101098.83;109099;1275;22002;-75
2023/10/01 16:21:11;;;;;;;10.70;4.90;;;;;;;18.59;46.65;101098.05;109274;1275;23744;-75
2023/10/01 16:23:58;;;;;;;10.60;5.50;;;;;;;18.57;46.70;101097.83;109147;1275;23176;-74
2023/10/01 16:27:16;;;;;;;11.90;5.90;;;;;;;18.48;46.87;101084.95;108923;1275;23055;-75
2023/10/01 16:31:06;;;;;;;;;;;;;;;;;;;;;
2023/10/01 16:34:02;;;;;;;6.70;4.60;;;;;;;18.48;46.96;101086.02;108827;1276;21982;-76
2023/10/01 16:37:17;;;;;;;;;;;;;;;;;;;;;
2023/10/01 16:40:58;;;;;;;;;;;;;;;;;;;;;
2023/10/01 16:44:58;;;;;;;;;;;;;;;;;;;;;
2023/10/01 16:48:46;;;;;;;10.40;4.50;;;;;;;18.25;47.71;101094.27;109381;1273;22002;-75
2023/10/01 16:51:55;;;;;;;;;;;;;;;;;;;;;
2023/10/01 16:55:13;;;;;;;;;;;;;;;;;;;;;
2023/10/01 16:58:23;;;;;;;12.40;8.10;;;;;;;18.17;48.15;101109.31;108987;1276;21980;-76
2023/10/01 17:02:28;;;;;;;12.20;6.70;;;;;;;18.15;48.31;101111.58;108971;1276;22083;-74
2023/10/01 17:05:26;;;;;;;12.90;5.30;;;;;;;18.10;48.59;101111.81;108135;1286;21999;-77
2023/10/01 17:10:04;;;;;;;;;;;;;;;;;;;;;
2023/10/01 17:12:28;;;;;;;11.60;4.90;;;;;;;17.96;49.21;101104.89;107855;1291;22012;-76
2023/10/01 17:16:26;;;;;;;11.50;4.90;;;;;;;18.00;49.34;101116.83;107734;1291;23101;-76
2023/10/01 17:19:28;;;;;;;10.70;4.90;;;;;;;17.95;49.72;101114.63;107513;1296;22015;-75
2023/10/01 17:22:31;;;;;;;9.60;5.00;;;;;;;17.92;49.65;101111.59;107499;1290;23669;-76
2023/10/01 17:28:57;;;;;;;9.80;5.00;;;;;;;17.88;50.01;101117.98;108019;1286;21992;-75
2023/10/01 17:31:49;;;;;;;9.40;6.00;;;;;;;17.86;50.19;101118.48;108216;1286;22008;-79
2023/10/01 17:35:17;;;;;;;12.10;6.50;;;;;;;17.84;50.23;101119.98;108215;1281;23705;-76
2023/10/01 17:39:19;;;;;;;14.90;7.70;;;;;;;17.76;50.70;101124.11;108551;1281;23087;-79
2023/10/01 17:42:32;;;;;;;;;;;;;;;17.70;51.02;101121.98;109174;1271;21987;-74